createdAt,value
2019-03-09T00:00:04.451Z,79.88
2019-03-09T00:05:08.995Z,80.25
2019-03-09T00:10:12.287Z,80.12
2019-03-09T00:15:07.401Z,80.78
2019-03-09T00:20:07.217Z,80.59
2019-03-09T00:25:06.713Z,80.65
2019-03-09T00:30:04.275Z,80.22
2019-03-09T00:35:07.475Z,80.1
2019-03-09T00:40:06.232Z,79.81
2019-03-09T00:45:04.400Z,79.98
2019-03-09T00:50:07.546Z,79.53
2019-03-09T00:55:06.206Z,78.93
2019-03-09T01:00:03.858Z,79.42
2019-03-09T01:05:08.039Z,79.66
2019-03-09T01:10:07.674Z,79.19
2019-03-09T01:15:05.271Z,79.45
2019-03-09T01:20:06.027Z,79.67
2019-03-09T01:25:07.338Z,80.48
2019-03-09T01:30:03.921Z,84.8
2019-03-09T01:35:05.828Z,85.11
2019-03-09T01:40:07.621Z,84.96
2019-03-09T01:45:03.685Z,87.67
2019-03-09T01:50:06.407Z,88.65
2019-03-09T01:55:07.407Z,91.08
2019-03-09T02:00:03.575Z,90.32
2019-03-09T02:05:08.403Z,89.71
2019-03-09T02:10:06.048Z,87.64
2019-03-09T02:15:03.539Z,88.52
2019-03-09T02:20:09.071Z,91.36
2019-03-09T02:25:10.127Z,93.32
2019-03-09T02:30:05.623Z,93.96
2019-03-09T02:35:10.031Z,94.19
2019-03-09T02:40:09.485Z,94.28
2019-03-09T02:45:03.537Z,94.54
2019-03-09T02:50:09.423Z,94.44
2019-03-09T02:55:07.610Z,94.47
2019-03-09T03:00:03.424Z,95.12
2019-03-09T03:05:06.401Z,95.76
2019-03-09T03:10:05.926Z,95.26
2019-03-09T03:15:02.602Z,95.41
2019-03-09T03:20:07.062Z,94.81
2019-03-09T03:25:09.488Z,94.24
2019-03-09T03:30:07.171Z,93.8
2019-03-09T03:35:09.428Z,92.87
2019-03-09T03:40:14.099Z,92.52
2019-03-09T03:45:05.351Z,93.29
2019-03-09T03:50:12.388Z,93.09
2019-03-09T03:55:11.907Z,92.6
2019-03-09T04:00:04.918Z,92.97
2019-03-09T04:05:13.201Z,92.42
2019-03-09T04:10:07.139Z,92.47
2019-03-09T04:15:09.231Z,92.34
2019-03-09T04:20:09.140Z,92.02
2019-03-09T04:25:08.734Z,92.17
2019-03-09T04:30:09.564Z,92.35
2019-03-09T04:35:07.804Z,92.62
2019-03-09T04:40:04.494Z,92.22
2019-03-09T04:45:02.964Z,92.45
2019-03-09T04:50:03.805Z,92.28
2019-03-09T04:55:04.469Z,92
2019-03-09T05:00:02.947Z,92.35
2019-03-09T05:05:03.900Z,92.43
2019-03-09T05:10:05.941Z,92.47
2019-03-09T05:15:03.711Z,92.62
2019-03-09T05:20:06.422Z,92.22
2019-03-09T05:25:08.159Z,91.57
2019-03-09T05:30:03.761Z,90.87
2019-03-09T05:35:07.597Z,91.02
2019-03-09T05:40:07.296Z,90.43
2019-03-09T05:45:03.851Z,90.27
2019-03-09T05:50:08.753Z,90.26
2019-03-09T05:55:09.562Z,89.81
2019-03-09T06:00:04.096Z,89.74
2019-03-09T06:05:07.196Z,89.2
2019-03-09T06:10:08.185Z,89.62
2019-03-09T06:15:05.250Z,89.55
2019-03-09T06:20:09.150Z,89.44
2019-03-09T06:25:07.789Z,89.65
2019-03-09T06:30:04.323Z,89.39
2019-03-09T06:35:07.625Z,89.16
2019-03-09T06:40:08.113Z,89.45
2019-03-09T06:45:04.276Z,89.04
2019-03-09T06:50:06.523Z,88.46
2019-03-09T06:55:07.262Z,88.35
2019-03-09T07:00:03.794Z,88.25
2019-03-09T07:05:06.619Z,87.46
2019-03-09T07:10:07.614Z,87.53
2019-03-09T07:15:04.138Z,87.36
2019-03-09T07:20:15.098Z,86.88
2019-03-09T07:25:07.331Z,87.49
2019-03-09T07:30:03.940Z,87.4
2019-03-09T07:35:06.706Z,86.93
2019-03-09T07:40:09.897Z,86.99
2019-03-09T07:45:04.454Z,87.03
2019-03-09T07:50:09.340Z,87.8
2019-03-09T07:55:08.784Z,87.72
2019-03-09T08:00:04.682Z,87.24
2019-03-09T08:05:08.836Z,87.15
2019-03-09T08:10:09.174Z,86.18
2019-03-09T08:15:03.843Z,85.69
2019-03-09T08:20:07.837Z,85.68
2019-03-09T08:25:07.411Z,85.34
2019-03-09T08:30:04.097Z,84.95
2019-03-09T08:35:06.307Z,84.2
2019-03-09T08:40:06.849Z,84.24
2019-03-09T08:45:03.330Z,83.01
2019-03-09T08:50:06.104Z,82.67
2019-03-09T08:55:06.786Z,81.75
2019-03-09T09:00:03.506Z,81.7
2019-03-09T09:05:06.245Z,82.54
2019-03-09T09:10:06.389Z,81.17
2019-03-09T09:15:02.918Z,80.33
2019-03-09T09:20:06.856Z,80.44
2019-03-09T09:25:10.534Z,80.42
2019-03-09T09:30:03.051Z,80.7
2019-03-09T09:35:06.919Z,79.58
2019-03-09T09:40:08.821Z,78.44
2019-03-09T09:45:03.317Z,78.8
2019-03-09T09:50:09.530Z,78.88
2019-03-09T09:55:07.785Z,78.02
2019-03-09T10:00:03.245Z,79.14
2019-03-09T10:05:07.546Z,77.51
2019-03-09T10:10:07.492Z,77.35
2019-03-09T10:15:04.573Z,76.11
2019-03-09T10:20:06.345Z,76.98
2019-03-09T10:25:07.510Z,76.37
2019-03-09T10:30:03.076Z,75.91
2019-03-09T10:35:05.765Z,74.97
2019-03-09T10:40:07.306Z,73.06
2019-03-09T10:45:02.876Z,73.29
2019-03-09T10:50:06.795Z,72.93
2019-03-09T10:55:07.405Z,71.63
2019-03-09T11:00:03.734Z,72.31
2019-03-09T11:05:07.249Z,70.41
2019-03-09T11:10:08.603Z,71.08
2019-03-09T11:15:03.157Z,69.29
2019-03-09T11:20:06.614Z,70.03
2019-03-09T11:25:09.856Z,69.89
2019-03-09T11:30:03.317Z,70.06
2019-03-09T11:35:09.932Z,69.89
2019-03-09T11:40:07.043Z,70.42
2019-03-09T11:45:02.559Z,69.15
2019-03-09T11:50:05.858Z,69.73
2019-03-09T11:55:05.137Z,69.03
2019-03-09T12:00:02.684Z,69.46
2019-03-09T12:05:04.610Z,71.12
2019-03-09T12:10:04.880Z,69.23
2019-03-09T12:15:05.248Z,69.81
2019-03-09T12:20:07.379Z,69.73
2019-03-09T12:25:10.080Z,67.15
2019-03-09T12:30:05.190Z,66.42
2019-03-09T12:35:09.240Z,67.35
2019-03-09T12:40:07.369Z,67.23
2019-03-09T12:45:04.108Z,67.31
2019-03-09T12:50:08.993Z,66.61
2019-03-09T12:55:07.032Z,65.48
2019-03-09T13:00:03.773Z,65.57
2019-03-09T13:05:09.194Z,66.25
2019-03-09T13:10:07.338Z,65.47
2019-03-09T13:15:06.146Z,66.52
2019-03-09T13:20:07.213Z,66.14
2019-03-09T13:25:08.098Z,64.45
2019-03-09T13:30:03.806Z,62.41
2019-03-09T13:35:07.981Z,62.35
2019-03-09T13:40:05.868Z,61.81
2019-03-09T13:45:04.408Z,61.87
2019-03-09T13:50:06.427Z,63.46
2019-03-09T13:55:06.736Z,64.34
2019-03-09T14:00:04.388Z,70.38
2019-03-09T14:05:07.380Z,69.44
2019-03-09T14:10:07.130Z,69.31
2019-03-09T14:15:03.707Z,69.82
2019-03-09T14:20:07.926Z,72.03
2019-03-09T14:25:09.394Z,69.93
2019-03-09T14:30:04.062Z,69.8
2019-03-09T14:35:09.132Z,70.89
2019-03-09T14:40:07.675Z,71.72
2019-03-09T14:45:04.326Z,71.63
2019-03-09T14:50:07.675Z,70.81
2019-03-09T14:55:06.407Z,72.5
2019-03-09T15:00:03.778Z,74.82
2019-03-09T15:05:06.567Z,76.74
2019-03-09T15:10:07.934Z,76.32
2019-03-09T15:15:03.513Z,74.03
2019-03-09T15:20:06.855Z,72.01
2019-03-09T15:25:10.443Z,71.27
2019-03-09T15:30:04.196Z,69.12
2019-03-09T15:35:08.366Z,67.89
2019-03-09T15:40:07.476Z,66.08
2019-03-09T15:45:02.977Z,66.14
2019-03-09T15:50:07.391Z,66.35
2019-03-09T15:55:06.244Z,66.98
2019-03-09T16:00:02.820Z,67.13
2019-03-09T16:05:06.858Z,67.8
2019-03-09T16:10:07.631Z,66.6
2019-03-09T16:15:03.178Z,66.44
2019-03-09T16:20:06.652Z,66.73
2019-03-09T16:25:08.517Z,67.02
2019-03-09T16:30:02.971Z,66.57
2019-03-09T16:35:07.392Z,72.51
2019-03-09T16:40:08.255Z,72.83
2019-03-09T16:45:02.838Z,72.12
2019-03-09T16:50:07.254Z,71.13
2019-03-09T16:55:09.484Z,70.97
2019-03-09T17:00:03.044Z,70.45
2019-03-09T17:05:07.796Z,69.89
2019-03-09T17:10:09.914Z,73.72
2019-03-09T17:15:03.435Z,76.84
2019-03-09T17:20:07.384Z,76.68
2019-03-09T17:25:06.279Z,74.38
2019-03-09T17:30:02.840Z,73.8
2019-03-09T17:35:04.589Z,74.68
2019-03-09T17:40:04.346Z,76.65
2019-03-09T17:45:02.908Z,79.28
2019-03-09T17:50:04.678Z,82.01
2019-03-09T17:55:04.453Z,82.72
2019-03-09T18:00:02.971Z,85.95
2019-03-09T18:05:04.662Z,88.1
2019-03-09T18:10:04.481Z,87.79
2019-03-09T18:15:03.025Z,87.81
2019-03-09T18:20:03.901Z,87.11
2019-03-09T18:25:05.032Z,85.95
2019-03-09T18:30:03.109Z,84.74
2019-03-09T18:35:07.336Z,85.16
2019-03-09T18:40:07.789Z,84.83
2019-03-09T18:45:04.339Z,84.77
2019-03-09T18:50:07.438Z,84.9
2019-03-09T18:55:06.081Z,83.53
2019-03-09T19:00:03.679Z,84.27
2019-03-09T19:05:08.662Z,84.63
2019-03-09T19:10:06.312Z,85
2019-03-09T19:15:04.045Z,85.59
2019-03-09T19:20:06.002Z,86.7
2019-03-09T19:25:06.936Z,87.83
2019-03-09T19:30:03.512Z,89.05
2019-03-09T19:35:06.253Z,89.91
2019-03-09T19:40:06.886Z,90.39
2019-03-09T19:45:04.547Z,90.69
2019-03-09T19:50:06.424Z,90.86
2019-03-09T19:55:08.133Z,90.58
2019-03-09T20:00:03.865Z,90.58
2019-03-09T20:05:10.802Z,90.51
2019-03-09T20:10:07.302Z,90
2019-03-09T20:15:04.011Z,90.04
2019-03-09T20:20:06.082Z,89.8
2019-03-09T20:25:07.239Z,89.57
2019-03-09T20:30:03.986Z,89.54
2019-03-09T20:35:05.729Z,89.33
2019-03-09T20:40:07.314Z,89.13
2019-03-09T20:45:03.905Z,89.6
2019-03-09T20:50:06.421Z,89.87
2019-03-09T20:55:06.952Z,89.52
2019-03-09T21:00:03.669Z,88.65
2019-03-09T21:05:07.869Z,91.27
2019-03-09T21:10:08.088Z,92.87
2019-03-09T21:15:03.984Z,94.14
2019-03-09T21:20:06.418Z,94.77
2019-03-09T21:25:08.640Z,95.16
2019-03-09T21:30:03.140Z,95.66
2019-03-09T21:35:06.575Z,95.35
2019-03-09T21:40:07.322Z,95.64
2019-03-09T21:45:02.899Z,96.05
2019-03-09T21:50:07.375Z,96.28
2019-03-09T21:55:07.787Z,96.32
2019-03-09T22:00:03.316Z,96.15
2019-03-09T22:05:07.815Z,96.18
2019-03-09T22:10:07.878Z,95.7
2019-03-09T22:15:03.353Z,95.96
2019-03-09T22:20:06.832Z,95.75
2019-03-09T22:25:08.419Z,95.78
2019-03-09T22:30:02.937Z,95.71
2019-03-09T22:35:06.355Z,95.93
2019-03-09T22:40:09.533Z,95.89
2019-03-09T22:45:02.997Z,95.89
2019-03-09T22:50:08.836Z,95.74
2019-03-09T22:55:09.458Z,95.61
2019-03-09T23:00:03.000Z,95.47
2019-03-09T23:05:11.104Z,95.18
2019-03-09T23:10:07.446Z,95.28
2019-03-09T23:15:02.978Z,95.83
2019-03-09T23:20:07.288Z,96.15
2019-03-09T23:25:06.794Z,95.52
2019-03-09T23:30:03.265Z,94.88
2019-03-09T23:35:06.350Z,94.4
2019-03-09T23:40:07.222Z,93.33
2019-03-09T23:45:02.774Z,93.38
2019-03-09T23:50:06.533Z,92.55
2019-03-09T23:55:07.339Z,92.17
